Eurasian Highway — 7JKY — position and weather

sailwx.info

Track history (hours):
 
Tides and Currents Weather Stations Pressure Air Temp Water Temp Dewpoint Dewpoint Depression Visibility Wind Speed Wind Dir Waves Ship Positions

Eurasian Highway

Last reported at 2016-Apr-30 00:34 UTC. Time now 2016-Apr-30 01:26 UTC.
Position N 51°08' E 001°35'.

Length 199 m; draft 8.7 m.

Type: Cargo ship. MMSI: 432839000.

Date/timePositionNaut miles runAvg speedWind from/ knotsBaromVisibWave heightAir tempDewpointWater temp
2016-Apr-30 00:34N 51°08' E 001°35'2020.0
2016-Apr-29 23:34N 51°23' E 001°56'1716.6
2016-Apr-29 22:33N 51°21' E 002°23'1413.6
2016-Apr-29 21:34N 51°23' E 002°44'1110.6
2016-Apr-29 20:34N 51°24' E 003°01'9 8.2
2016-Apr-29 19:31N 51°20' E 003°13'0 0.1
2016-Apr-29 18:34N 51°20' E 003°13'2 2.2
2016-Apr-29 17:32N 51°18' E 003°14'0 0.0
2016-Apr-29 16:32N 51°18' E 003°14'0 0.0
2016-Apr-29 15:32N 51°18' E 003°14'0 0.0
2016-Apr-29 14:32N 51°18' E 003°14'0 0.0
2016-Apr-29 13:32N 51°18' E 003°14'0 0.0
2016-Apr-29 12:32N 51°18' E 003°14'0 0.0
2016-Apr-29 11:32N 51°18' E 003°14'0 0.0
2016-Apr-29 10:32N 51°18' E 003°14'0 0.0
2016-Apr-29 09:32N 51°18' E 003°14'0 0.0
2016-Apr-29 08:32N 51°18' E 003°14'0 0.0
2016-Apr-29 07:32N 51°18' E 003°14'0 0.0
2016-Apr-29 06:32N 51°18' E 003°14'0 0.0
2016-Apr-29 05:32N 51°18' E 003°14'0 0.0
2016-Apr-29 04:32N 51°18' E 003°14'0 0.0
2016-Apr-29 03:32N 51°18' E 003°14'0 0.0
2016-Apr-29 02:32N 51°18' E 003°14'0 0.0
2016-Apr-29 01:32N 51°18' E 003°14'0 0.0
2016-Apr-29 00:32N 51°18' E 003°14'0 0.0
2016-Apr-28 23:32N 51°18' E 003°14'0 0.0
2016-Apr-28 22:32N 51°18' E 003°14'0 0.0
2016-Apr-28 21:29N 51°18' E 003°14'0 0.0
2016-Apr-28 20:32N 51°18' E 003°14'0 0.0
2016-Apr-28 19:32N 51°18' E 003°14'0 0.0
2016-Apr-28 18:26N 51°18' E 003°14'0 0.0
2016-Apr-28 17:32N 51°18' E 003°14'0 0.0
2016-Apr-28 16:32N 51°18' E 003°14'0 0.2
2016-Apr-28 15:33N 51°18' E 003°14'2 2.0
2016-Apr-28 14:33N 51°20' E 003°13'4 3.9
2016-Apr-28 13:33N 51°23' E 003°09'10 9.9
2016-Apr-28 12:33N 51°22' E 002°54'1111.1
2016-Apr-28 11:33N 51°22' E 002°36'7 6.7
2016-Apr-28 10:33N 51°21' E 002°25'4 4.2
2016-Apr-28 09:33N 51°18' E 002°20'2 2.0
2016-Apr-28 08:33N 51°17' E 002°18'3 2.7
2016-Apr-28 07:34N 51°16' E 002°14'1716.7
2016-Apr-28 06:34N 51°08' E 001°50'1919.0
2016-Apr-28 05:33N 50°54' E 001°30'4218.5
2016-Apr-28 03:16N 50°27' E 000°39'1318.8
2016-Apr-28 02:33N 50°22' E 000°19'1919.3
2016-Apr-28 01:33N 50°20' W 000°11'2020.1
2016-Apr-28 00:33N 50°28' W 000°40'1616.1
2016-Apr-27 23:33N 50°39' W 000°59'1010.4
2016-Apr-27 22:33N 50°46' W 001°12'9 8.7
2016-Apr-27 21:34N 50°52' W 001°22'2 1.8
2016-Apr-27 20:27N 50°53' W 001°24'0 0.0
2016-Apr-27 19:33N 50°53' W 001°24'0 0.0
2016-Apr-27 18:18N 50°53' W 001°24'0 0.0
2016-Apr-27 17:33N 50°53' W 001°24'0 0.0
2016-Apr-27 16:34N 50°53' W 001°24'0 0.0
2016-Apr-27 15:34N 50°53' W 001°24'0 0.0
2016-Apr-27 14:33N 50°53' W 001°24'0 0.0
2016-Apr-27 13:13N 50°53' W 001°24'0 0.0
2016-Apr-27 12:34N 50°53' W 001°24'0 0.0
2016-Apr-27 11:34N 50°53' W 001°24'0 0.0
2016-Apr-27 10:28N 50°53' W 001°24'0 0.0
2016-Apr-27 09:33N 50°53' W 001°24'0 0.0
2016-Apr-27 08:31N 50°53' W 001°24'0 0.0
2016-Apr-27 07:31N 50°53' W 001°24'0 0.0
2016-Apr-27 06:31N 50°53' W 001°24'0 0.0
2016-Apr-27 05:31N 50°53' W 001°24'0 0.0
2016-Apr-27 04:31N 50°53' W 001°24'1 0.9
2016-Apr-27 03:34N 50°52' W 001°23'9 8.9
2016-Apr-27 02:34N 50°46' W 001°13'1312.6
2016-Apr-27 01:33N 50°40' W 000°56'6 6.5
2016-Apr-27 00:33N 50°34' W 000°51'1413.9
2016-Apr-26 23:34N 50°33' W 000°29'1616.3
2016-Apr-26 22:33N 50°32' W 000°03'1716.8
2016-Apr-26 21:34N 50°36' E 000°22'3718.6
2016-Apr-26 19:33N 50°56' E 001°12'1918.9
2016-Apr-26 18:34N 51°07' E 001°36'1817.5
2016-Apr-26 17:34N 51°22' E 001°53'1716.5
2016-Apr-26 16:33N 51°34' E 002°10'1716.4
2016-Apr-26 15:32N 51°47' E 002°28'1616.4
2016-Apr-26 14:32N 51°59' E 002°45'8717.5
2016-Apr-26 09:34N 53°06' E 004°16'3215.9
2016-Apr-26 07:32N 53°31' E 004°49'1615.8
2016-Apr-26 06:34N 53°36' E 005°14'1717.3
2016-Apr-26 05:33N 53°41' E 005°42'1918.5
2016-Apr-26 04:33N 53°48' E 006°11'1818.5
2016-Apr-26 03:33N 53°54' E 006°41'1817.9
2016-Apr-26 02:33N 53°57' E 007°11'1717.4
2016-Apr-26 01:33N 53°59' E 007°40'1211.9
2016-Apr-26 00:33N 53°52' E 007°56'1414.1
2016-Apr-25 23:33N 53°44' E 008°16'1212.2
2016-Apr-25 22:33N 53°35' E 008°31'1 1.5
2016-Apr-25 21:33N 53°34' E 008°33'0 0.4
2016-Apr-25 20:33N 53°35' E 008°33'0 0.0
2016-Apr-25 19:33N 53°35' E 008°33'0 0.0
2016-Apr-25 18:33N 53°35' E 008°33'0 0.0
2016-Apr-25 17:33N 53°35' E 008°33'0 0.0
2016-Apr-25 16:33N 53°35' E 008°33'0 0.0
2016-Apr-25 15:33N 53°35' E 008°33'0 0.0
2016-Apr-25 14:33N 53°35' E 008°33'0 0.0
2016-Apr-25 13:33N 53°35' E 008°33'0 0.0
2016-Apr-25 12:33N 53°35' E 008°33'0 0.0
2016-Apr-25 11:33N 53°35' E 008°33'0 0.0
2016-Apr-25 10:33N 53°35' E 008°33'0 0.0
2016-Apr-25 09:33N 53°35' E 008°33'0 0.0
2016-Apr-25 08:33N 53°35' E 008°33'0 0.0
2016-Apr-25 07:33N 53°35' E 008°33'0 0.0
2016-Apr-25 06:33N 53°35' E 008°33'0 0.0
2016-Apr-25 05:33N 53°35' E 008°33'0 0.0
2016-Apr-25 04:33N 53°35' E 008°33'0 0.0
2016-Apr-25 03:33N 53°35' E 008°33'0 0.0
2016-Apr-25 02:33N 53°35' E 008°33'0 0.0
2016-Apr-25 01:33N 53°35' E 008°33'0 0.0
2016-Apr-25 00:33N 53°35' E 008°33'0 0.0
2016-Apr-24 23:33N 53°35' E 008°33'0 0.0
2016-Apr-24 22:33N 53°35' E 008°33'0 0.0
2016-Apr-24 21:33N 53°35' E 008°33'0 0.1
2016-Apr-24 20:33N 53°35' E 008°33'1 0.8
2016-Apr-24 19:33N 53°34' E 008°33'5 5.0
2016-Apr-24 18:33N 53°38' E 008°27'10 9.5
2016-Apr-24 17:33N 53°44' E 008°15'1211.6
2016-Apr-24 16:33N 53°51' E 007°60'10 9.6
2016-Apr-24 15:34N 53°53' E 007°44'6 6.3
2016-Apr-24 14:34N 53°52' E 007°33'1 0.9
2016-Apr-24 13:33N 53°53' E 007°33'1414.1
2016-Apr-24 12:33N 53°52' E 007°09'1818.0
2016-Apr-24 11:34N 53°48' E 006°40'1818.1
2016-Apr-24 10:33N 53°42' E 006°10'1818.2
2016-Apr-24 09:33N 53°37' E 005°41'1717.1
2016-Apr-24 08:33N 53°31' E 005°14'3115.4
2016-Apr-24 06:32N 53°11' E 004°34'1616.6
2016-Apr-24 05:34N 52°57' E 004°21'1716.6
2016-Apr-24 04:32N 52°43' E 004°05'1916.8
2016-Apr-24 03:26N 52°30' E 003°42'6615.3
2016-Apr-23 23:08N 51°35' E 002°43'814.2
2016-Apr-23 22:32N 51°27' E 002°43'9 9.5
2016-Apr-23 21:34N 51°25' E 002°58'1616.3
2016-Apr-23 20:34N 51°25' E 003°24'1313.2
2016-Apr-23 19:34N 51°24' E 003°45'1 0.9
2016-Apr-23 18:32N 51°23' E 003°47'0 0.0
2016-Apr-23 17:32N 51°23' E 003°46'0 0.1
2016-Apr-23 16:32N 51°23' E 003°46'0 0.1
2016-Apr-23 15:32N 51°23' E 003°47'0 0.0
2016-Apr-23 14:32N 51°23' E 003°47'0 0.0
2016-Apr-23 13:32N 51°23' E 003°47'0 0.0
2016-Apr-23 12:32N 51°23' E 003°47'0 0.0
2016-Apr-23 11:32N 51°23' E 003°47'0 0.0
2016-Apr-23 10:32N 51°23' E 003°47'0 0.0
2016-Apr-23 09:32N 51°23' E 003°46'0 0.1
2016-Apr-23 08:32N 51°23' E 003°46'0 0.0
2016-Apr-23 07:33N 51°23' E 003°46'7 6.7
2016-Apr-23 06:33N 51°26' E 003°36'1111.0
2016-Apr-23 05:33N 51°24' E 003°19'1414.2
2016-Apr-23 04:33N 51°22' E 002°56'1111.3
2016-Apr-23 03:33N 51°22' E 002°38'1413.6
2016-Apr-23 02:34N 51°19' E 002°17'2019.6
2016-Apr-23 01:34N 51°08' E 001°51'2019.9
2016-Apr-23 00:34N 50°54' E 001°28'4117.3
2016-Apr-22 22:11N 50°27' E 000°40'1218.7
2016-Apr-22 21:33N 50°24' E 000°22'1919.4
2016-Apr-22 20:33N 50°19' W 000°07'2019.7
2016-Apr-22 19:33N 50°13' W 000°37'7817.9
2016-Apr-22 15:11N 49°53' W 002°34'1016.2
2016-Apr-22 14:34N 49°50' W 002°49'1616.4
2016-Apr-22 13:33N 49°45' W 003°14'1716.6
2016-Apr-22 12:31N 49°41' W 003°39'12317.6
2016-Apr-22 05:33N 49°15' W 006°44'  
Track history (hours):
 
Tides and Currents Weather Stations Pressure Air Temp Water Temp Dewpoint Dewpoint Depression Visibility Wind Speed Wind Dir Waves Ship Positions

Eurasian Highway

Last reported at 2016-Apr-30 00:34 UTC. Time now 2016-Apr-30 01:26 UTC.
Position N 51°08' E 001°35'.

Length 199 m; draft 8.7 m.

Type: Cargo ship. MMSI: 432839000.

Date/timePositionNaut miles runAvg speedWind from/ knotsBaromVisibWave heightAir tempDewpointWater temp
2016-Apr-30 00:34N 51°08' E 001°35'2020.0
2016-Apr-29 23:34N 51°23' E 001°56'1716.6
2016-Apr-29 22:33N 51°21' E 002°23'1413.6
2016-Apr-29 21:34N 51°23' E 002°44'1110.6
2016-Apr-29 20:34N 51°24' E 003°01'9 8.2
2016-Apr-29 19:31N 51°20' E 003°13'0 0.1
2016-Apr-29 18:34N 51°20' E 003°13'2 2.2
2016-Apr-29 17:32N 51°18' E 003°14'0 0.0
2016-Apr-29 16:32N 51°18' E 003°14'0 0.0
2016-Apr-29 15:32N 51°18' E 003°14'0 0.0
2016-Apr-29 14:32N 51°18' E 003°14'0 0.0
2016-Apr-29 13:32N 51°18' E 003°14'0 0.0
2016-Apr-29 12:32N 51°18' E 003°14'0 0.0
2016-Apr-29 11:32N 51°18' E 003°14'0 0.0
2016-Apr-29 10:32N 51°18' E 003°14'0 0.0
2016-Apr-29 09:32N 51°18' E 003°14'0 0.0
2016-Apr-29 08:32N 51°18' E 003°14'0 0.0
2016-Apr-29 07:32N 51°18' E 003°14'0 0.0
2016-Apr-29 06:32N 51°18' E 003°14'0 0.0
2016-Apr-29 05:32N 51°18' E 003°14'0 0.0
2016-Apr-29 04:32N 51°18' E 003°14'0 0.0
2016-Apr-29 03:32N 51°18' E 003°14'0 0.0
2016-Apr-29 02:32N 51°18' E 003°14'0 0.0
2016-Apr-29 01:32N 51°18' E 003°14'0 0.0
2016-Apr-29 00:32N 51°18' E 003°14'0 0.0
2016-Apr-28 23:32N 51°18' E 003°14'0 0.0
2016-Apr-28 22:32N 51°18' E 003°14'0 0.0
2016-Apr-28 21:29N 51°18' E 003°14'0 0.0
2016-Apr-28 20:32N 51°18' E 003°14'0 0.0
2016-Apr-28 19:32N 51°18' E 003°14'0 0.0
2016-Apr-28 18:26N 51°18' E 003°14'0 0.0
2016-Apr-28 17:32N 51°18' E 003°14'0 0.0
2016-Apr-28 16:32N 51°18' E 003°14'0 0.2
2016-Apr-28 15:33N 51°18' E 003°14'2 2.0
2016-Apr-28 14:33N 51°20' E 003°13'4 3.9
2016-Apr-28 13:33N 51°23' E 003°09'10 9.9
2016-Apr-28 12:33N 51°22' E 002°54'1111.1
2016-Apr-28 11:33N 51°22' E 002°36'7 6.7
2016-Apr-28 10:33N 51°21' E 002°25'4 4.2
2016-Apr-28 09:33N 51°18' E 002°20'2 2.0
2016-Apr-28 08:33N 51°17' E 002°18'3 2.7
2016-Apr-28 07:34N 51°16' E 002°14'1716.7
2016-Apr-28 06:34N 51°08' E 001°50'1919.0
2016-Apr-28 05:33N 50°54' E 001°30'4218.5
2016-Apr-28 03:16N 50°27' E 000°39'1318.8
2016-Apr-28 02:33N 50°22' E 000°19'1919.3
2016-Apr-28 01:33N 50°20' W 000°11'2020.1
2016-Apr-28 00:33N 50°28' W 000°40'1616.1
2016-Apr-27 23:33N 50°39' W 000°59'1010.4
2016-Apr-27 22:33N 50°46' W 001°12'9 8.7
2016-Apr-27 21:34N 50°52' W 001°22'2 1.8
2016-Apr-27 20:27N 50°53' W 001°24'0 0.0
2016-Apr-27 19:33N 50°53' W 001°24'0 0.0
2016-Apr-27 18:18N 50°53' W 001°24'0 0.0
2016-Apr-27 17:33N 50°53' W 001°24'0 0.0
2016-Apr-27 16:34N 50°53' W 001°24'0 0.0
2016-Apr-27 15:34N 50°53' W 001°24'0 0.0
2016-Apr-27 14:33N 50°53' W 001°24'0 0.0
2016-Apr-27 13:13N 50°53' W 001°24'0 0.0
2016-Apr-27 12:34N 50°53' W 001°24'0 0.0
2016-Apr-27 11:34N 50°53' W 001°24'0 0.0
2016-Apr-27 10:28N 50°53' W 001°24'0 0.0
2016-Apr-27 09:33N 50°53' W 001°24'0 0.0
2016-Apr-27 08:31N 50°53' W 001°24'0 0.0
2016-Apr-27 07:31N 50°53' W 001°24'0 0.0
2016-Apr-27 06:31N 50°53' W 001°24'0 0.0
2016-Apr-27 05:31N 50°53' W 001°24'0 0.0
2016-Apr-27 04:31N 50°53' W 001°24'1 0.9
2016-Apr-27 03:34N 50°52' W 001°23'9 8.9
2016-Apr-27 02:34N 50°46' W 001°13'1312.6
2016-Apr-27 01:33N 50°40' W 000°56'6 6.5
2016-Apr-27 00:33N 50°34' W 000°51'1413.9
2016-Apr-26 23:34N 50°33' W 000°29'1616.3
2016-Apr-26 22:33N 50°32' W 000°03'1716.8
2016-Apr-26 21:34N 50°36' E 000°22'3718.6
2016-Apr-26 19:33N 50°56' E 001°12'1918.9
2016-Apr-26 18:34N 51°07' E 001°36'1817.5
2016-Apr-26 17:34N 51°22' E 001°53'1716.5
2016-Apr-26 16:33N 51°34' E 002°10'1716.4
2016-Apr-26 15:32N 51°47' E 002°28'1616.4
2016-Apr-26 14:32N 51°59' E 002°45'8717.5
2016-Apr-26 09:34N 53°06' E 004°16'3215.9
2016-Apr-26 07:32N 53°31' E 004°49'1615.8
2016-Apr-26 06:34N 53°36' E 005°14'1717.3
2016-Apr-26 05:33N 53°41' E 005°42'1918.5
2016-Apr-26 04:33N 53°48' E 006°11'1818.5
2016-Apr-26 03:33N 53°54' E 006°41'1817.9
2016-Apr-26 02:33N 53°57' E 007°11'1717.4
2016-Apr-26 01:33N 53°59' E 007°40'1211.9
2016-Apr-26 00:33N 53°52' E 007°56'1414.1
2016-Apr-25 23:33N 53°44' E 008°16'1212.2
2016-Apr-25 22:33N 53°35' E 008°31'1 1.5
2016-Apr-25 21:33N 53°34' E 008°33'0 0.4
2016-Apr-25 20:33N 53°35' E 008°33'0 0.0
2016-Apr-25 19:33N 53°35' E 008°33'0 0.0
2016-Apr-25 18:33N 53°35' E 008°33'0 0.0
2016-Apr-25 17:33N 53°35' E 008°33'0 0.0
2016-Apr-25 16:33N 53°35' E 008°33'0 0.0
2016-Apr-25 15:33N 53°35' E 008°33'0 0.0
2016-Apr-25 14:33N 53°35' E 008°33'0 0.0
2016-Apr-25 13:33N 53°35' E 008°33'0 0.0
2016-Apr-25 12:33N 53°35' E 008°33'0 0.0
2016-Apr-25 11:33N 53°35' E 008°33'0 0.0
2016-Apr-25 10:33N 53°35' E 008°33'0 0.0
2016-Apr-25 09:33N 53°35' E 008°33'0 0.0
2016-Apr-25 08:33N 53°35' E 008°33'0 0.0
2016-Apr-25 07:33N 53°35' E 008°33'0 0.0
2016-Apr-25 06:33N 53°35' E 008°33'0 0.0
2016-Apr-25 05:33N 53°35' E 008°33'0 0.0
2016-Apr-25 04:33N 53°35' E 008°33'0 0.0
2016-Apr-25 03:33N 53°35' E 008°33'0 0.0
2016-Apr-25 02:33N 53°35' E 008°33'0 0.0
2016-Apr-25 01:33N 53°35' E 008°33'0 0.0
2016-Apr-25 00:33N 53°35' E 008°33'0 0.0
2016-Apr-24 23:33N 53°35' E 008°33'0 0.0
2016-Apr-24 22:33N 53°35' E 008°33'0 0.0
2016-Apr-24 21:33N 53°35' E 008°33'0 0.1
2016-Apr-24 20:33N 53°35' E 008°33'1 0.8
2016-Apr-24 19:33N 53°34' E 008°33'5 5.0
2016-Apr-24 18:33N 53°38' E 008°27'10 9.5
2016-Apr-24 17:33N 53°44' E 008°15'1211.6
2016-Apr-24 16:33N 53°51' E 007°60'10 9.6
2016-Apr-24 15:34N 53°53' E 007°44'6 6.3
2016-Apr-24 14:34N 53°52' E 007°33'1 0.9
2016-Apr-24 13:33N 53°53' E 007°33'1414.1
2016-Apr-24 12:33N 53°52' E 007°09'1818.0
2016-Apr-24 11:34N 53°48' E 006°40'1818.1
2016-Apr-24 10:33N 53°42' E 006°10'1818.2
2016-Apr-24 09:33N 53°37' E 005°41'1717.1
2016-Apr-24 08:33N 53°31' E 005°14'3115.4
2016-Apr-24 06:32N 53°11' E 004°34'1616.6
2016-Apr-24 05:34N 52°57' E 004°21'1716.6
2016-Apr-24 04:32N 52°43' E 004°05'1916.8
2016-Apr-24 03:26N 52°30' E 003°42'6615.3
2016-Apr-23 23:08N 51°35' E 002°43'814.2
2016-Apr-23 22:32N 51°27' E 002°43'9 9.5
2016-Apr-23 21:34N 51°25' E 002°58'1616.3
2016-Apr-23 20:34N 51°25' E 003°24'1313.2
2016-Apr-23 19:34N 51°24' E 003°45'1 0.9
2016-Apr-23 18:32N 51°23' E 003°47'0 0.0
2016-Apr-23 17:32N 51°23' E 003°46'0 0.1
2016-Apr-23 16:32N 51°23' E 003°46'0 0.1
2016-Apr-23 15:32N 51°23' E 003°47'0 0.0
2016-Apr-23 14:32N 51°23' E 003°47'0 0.0
2016-Apr-23 13:32N 51°23' E 003°47'0 0.0
2016-Apr-23 12:32N 51°23' E 003°47'0 0.0
2016-Apr-23 11:32N 51°23' E 003°47'0 0.0
2016-Apr-23 10:32N 51°23' E 003°47'0 0.0
2016-Apr-23 09:32N 51°23' E 003°46'0 0.1
2016-Apr-23 08:32N 51°23' E 003°46'0 0.0
2016-Apr-23 07:33N 51°23' E 003°46'7 6.7
2016-Apr-23 06:33N 51°26' E 003°36'1111.0
2016-Apr-23 05:33N 51°24' E 003°19'1414.2
2016-Apr-23 04:33N 51°22' E 002°56'1111.3
2016-Apr-23 03:33N 51°22' E 002°38'1413.6
2016-Apr-23 02:34N 51°19' E 002°17'2019.6
2016-Apr-23 01:34N 51°08' E 001°51'2019.9
2016-Apr-23 00:34N 50°54' E 001°28'4117.3
2016-Apr-22 22:11N 50°27' E 000°40'1218.7
2016-Apr-22 21:33N 50°24' E 000°22'1919.4
2016-Apr-22 20:33N 50°19' W 000°07'2019.7
2016-Apr-22 19:33N 50°13' W 000°37'7817.9
2016-Apr-22 15:11N 49°53' W 002°34'1016.2
2016-Apr-22 14:34N 49°50' W 002°49'1616.4
2016-Apr-22 13:33N 49°45' W 003°14'1716.6
2016-Apr-22 12:31N 49°41' W 003°39'12317.6
2016-Apr-22 05:33N 49°15' W 006°44'  

Dump ship's entire track history